Careiro, Brazil
Current Conditions -  °F | °C
As of 5:00 PM on Monday 24 Nov 2014 (Local Time) from SBMN Reporting Station
Thunderstorm Thunderstorm  
Wind Chill: 86°   Ceiling: Unl
Heat Index: 93°   Visibility: 6mi
Dew Point: 73°   Wind: 12mph
Humidity: 66%   Direction: 100°E
Pressure: 29.74"   Gusts: NA
Location:  3.77°S, 60.37°W
Report Text: SBMN 242100Z 10010KT 9999 TS SCT020 FEW025CB 30/23 Q1007
Loading
Personal Weather Stations






























Interactive Weather Map New forecast layout! Learn more

10-Day Weather Forecast

Advertisements
Track Severe Weather on mobile